Time,TemperatureF,DewpointF,PressureIn,WindDirection,WindDirectionDegrees,WindSpeedMPH,WindSpeedGustMPH,Humidity,HourlyPrecipIn,Conditions,Clouds,dailyrainin,SoftwareType,DateUTC
2013-01-07 00:06:00,23.9,9.0,30.06,NE,41,3.0,-999.0,54,-99.99,,,0.00,weatherlink.com 1.10,2013-01-07 07:06:00,
2013-01-07 00:21:00,24.1,10.0,30.04,NE,41,3.0,-999.0,55,-99.99,,,0.00,weatherlink.com 1.10,2013-01-07 07:21:00,
2013-01-07 00:36:00,23.8,10.0,30.04,NE,41,5.0,-999.0,56,-99.99,,,0.00,weatherlink.com 1.10,2013-01-07 07:36:00,
2013-01-07 00:51:00,23.0,9.0,30.05,NE,41,0.0,-999.0,55,-99.99,,,0.00,weatherlink.com 1.10,2013-01-07 07:51:00,
2013-01-07 01:06:00,22.4,9.0,30.05,NE,41,2.0,-999.0,56,-99.99,,,0.00,weatherlink.com 1.10,2013-01-07 08:06:00,
2013-01-07 01:21:00,21.4,9.0,30.03,NE,41,0.0,-999.0,58,-99.99,,,0.00,weatherlink.com 1.10,2013-01-07 08:21:00,
2013-01-07 01:36:00,21.1,9.0,30.03,NE,41,0.0,-999.0,59,-99.99,,,0.00,weatherlink.com 1.10,2013-01-07 08:36:00,
2013-01-07 01:51:00,22.2,9.0,30.03,NE,41,1.0,-999.0,58,-99.99,,,0.00,weatherlink.com 1.10,2013-01-07 08:51:00,
2013-01-07 02:06:00,22.4,9.0,30.03,NE,41,0.0,-999.0,57,-99.99,,,0.00,weatherlink.com 1.10,2013-01-07 09:06:00,
2013-01-07 02:21:00,21.9,9.0,30.02,NE,41,3.0,-999.0,58,-99.99,,,0.00,weatherlink.com 1.10,2013-01-07 09:21:00,
2013-01-07 02:36:00,22.4,9.0,30.02,NE,41,4.0,-999.0,57,-99.99,,,0.00,weatherlink.com 1.10,2013-01-07 09:36:00,
2013-01-07 02:51:00,20.2,8.0,30.02,NE,41,2.0,-999.0,60,-99.99,,,0.00,weatherlink.com 1.10,2013-01-07 09:51:00,
2013-01-07 03:06:00,19.4,9.0,30.03,NE,41,0.0,-999.0,63,-99.99,,,0.00,weatherlink.com 1.10,2013-01-07 10:06:00,
2013-01-07 03:21:00,20.3,9.0,30.04,NE,41,2.0,-999.0,62,-99.99,,,0.00,weatherlink.com 1.10,2013-01-07 10:21:00,
2013-01-07 03:36:00,20.0,8.0,30.02,NE,41,2.0,-999.0,61,-99.99,,,0.00,weatherlink.com 1.10,2013-01-07 10:36:00,
2013-01-07 03:51:00,20.6,9.0,30.03,NE,41,2.0,-999.0,61,-99.99,,,0.00,weatherlink.com 1.10,2013-01-07 10:51:00,
2013-01-07 04:06:00,18.9,9.0,30.03,NE,41,2.0,-999.0,64,-99.99,,,0.00,weatherlink.com 1.10,2013-01-07 11:06:00,
2013-01-07 04:21:00,18.4,8.0,30.04,NE,41,2.0,-999.0,64,-99.99,,,0.00,weatherlink.com 1.10,2013-01-07 11:21:00,
2013-01-07 04:36:00,18.0,8.0,30.06,NE,41,2.0,-999.0,66,-99.99,,,0.00,weatherlink.com 1.10,2013-01-07 11:36:00,
2013-01-07 04:51:00,18.6,9.0,30.06,NE,41,1.0,-999.0,66,-99.99,,,0.00,weatherlink.com 1.10,2013-01-07 11:51:00,
2013-01-07 05:06:00,18.8,8.0,30.05,NE,41,0.0,-999.0,64,-99.99,,,0.00,weatherlink.com 1.10,2013-01-07 12:06:00,
2013-01-07 05:21:00,18.1,8.0,30.10,NE,41,0.0,-999.0,65,-99.99,,,0.00,weatherlink.com 1.10,2013-01-07 12:21:00,
2013-01-07 05:37:00,17.8,8.0,30.10,NE,41,2.0,-999.0,65,-99.99,,,0.00,weatherlink.com 1.10,2013-01-07 12:37:00,
2013-01-07 05:52:00,19.1,9.0,30.08,NE,41,2.0,-999.0,64,-99.99,,,0.00,weatherlink.com 1.10,2013-01-07 12:52:00,
2013-01-07 06:07:00,18.3,7.0,30.08,NE,41,3.0,-999.0,62,-99.99,,,0.00,weatherlink.com 1.10,2013-01-07 13:07:00,
2013-01-07 06:22:00,18.6,9.0,30.11,NE,41,4.0,-999.0,67,-99.99,,,0.00,weatherlink.com 1.10,2013-01-07 13:22:00,
2013-01-07 06:38:00,18.4,9.0,30.09,NE,41,2.0,-999.0,66,-99.99,,,0.00,weatherlink.com 1.10,2013-01-07 13:38:00,
2013-01-07 06:52:00,18.3,9.0,30.10,NE,41,0.0,-999.0,67,-99.99,,,0.00,weatherlink.com 1.10,2013-01-07 13:52:00,
2013-01-07 07:07:00,18.4,9.0,30.09,NE,41,2.0,-999.0,66,-99.99,,,0.00,weatherlink.com 1.10,2013-01-07 14:07:00,
2013-01-07 07:22:00,19.9,9.0,30.10,NE,41,1.0,-999.0,64,-99.99,,,0.00,weatherlink.com 1.10,2013-01-07 14:22:00,
2013-01-07 07:38:00,19.9,9.0,30.09,NE,41,2.0,-999.0,62,-99.99,,,0.00,weatherlink.com 1.10,2013-01-07 14:38:00,
2013-01-07 07:53:00,19.9,9.0,30.10,NE,41,0.0,-999.0,64,-99.99,,,0.00,weatherlink.com 1.10,2013-01-07 14:53:00,
2013-01-07 08:09:00,20.5,10.0,30.11,NE,41,0.0,-999.0,63,-99.99,,,0.00,weatherlink.com 1.10,2013-01-07 15:09:00,
2013-01-07 08:24:00,19.5,9.0,30.08,NE,41,0.0,-999.0,63,-99.99,,,0.00,weatherlink.com 1.10,2013-01-07 15:24:00,
2013-01-07 08:38:00,20.2,10.0,30.08,NE,41,0.0,-999.0,64,-99.99,,,0.00,weatherlink.com 1.10,2013-01-07 15:38:00,
2013-01-07 08:53:00,21.8,11.0,30.08,NE,41,2.0,-999.0,63,-99.99,,,0.00,weatherlink.com 1.10,2013-01-07 15:53:00,
2013-01-07 09:09:00,22.5,12.0,30.07,NE,41,0.0,-999.0,63,-99.99,,,0.00,weatherlink.com 1.10,2013-01-07 16:09:00,
2013-01-07 09:24:00,25.6,13.0,30.08,NE,41,0.0,-999.0,59,-99.99,,,0.00,weatherlink.com 1.10,2013-01-07 16:24:00,
2013-01-07 09:38:00,29.0,14.0,30.05,NE,41,3.0,-999.0,54,-99.99,,,0.00,weatherlink.com 1.10,2013-01-07 16:38:00,
2013-01-07 09:53:00,31.8,13.0,30.03,NE,41,0.0,-999.0,46,-99.99,,,0.00,weatherlink.com 1.10,2013-01-07 16:53:00,
2013-01-07 10:09:00,33.4,12.0,30.02,NE,41,0.0,-999.0,41,-99.99,,,0.00,weatherlink.com 1.10,2013-01-07 17:09:00,
2013-01-07 10:24:00,35.3,11.0,30.03,NE,41,1.0,-999.0,36,-99.99,,,0.00,weatherlink.com 1.10,2013-01-07 17:24:00,
2013-01-07 10:40:00,36.6,11.0,30.03,NE,41,0.0,-999.0,35,-99.99,,,0.00,weatherlink.com 1.10,2013-01-07 17:40:00,
2013-01-07 10:55:00,38.3,11.0,30.02,NE,41,0.0,-999.0,32,-99.99,,,0.00,weatherlink.com 1.10,2013-01-07 17:55:00,
2013-01-07 11:10:00,40.5,10.0,30.00,NE,41,0.0,-999.0,28,-99.99,,,0.00,weatherlink.com 1.10,2013-01-07 18:10:00,
2013-01-07 11:25:00,38.3,14.0,30.01,NNW,342,6.0,-999.0,37,-99.99,,,0.00,weatherlink.com 1.10,2013-01-07 18:25:00,
2013-01-07 11:41:00,37.9,12.0,30.02,NNW,336,1.0,-999.0,35,-99.99,,,0.00,weatherlink.com 1.10,2013-01-07 18:41:00,
2013-01-07 11:54:00,38.8,10.0,30.00,NNW,336,2.0,-999.0,31,-99.99,,,0.00,weatherlink.com 1.10,2013-01-07 18:54:00,
2013-01-07 12:11:00,38.2,13.0,30.00,WNW,297,7.0,-999.0,36,-99.99,,,0.00,weatherlink.com 1.10,2013-01-07 19:11:00,
2013-01-07 12:25:00,37.5,13.0,30.00,WNW,295,7.0,-999.0,37,-99.99,,,0.00,weatherlink.com 1.10,2013-01-07 19:25:00,
2013-01-07 12:40:00,38.3,13.0,29.99,WNW,295,5.0,-999.0,36,-99.99,,,0.00,weatherlink.com 1.10,2013-01-07 19:40:00,
2013-01-07 12:56:00,39.3,13.0,29.97,WNW,295,3.0,-999.0,34,-99.99,,,0.00,weatherlink.com 1.10,2013-01-07 19:56:00,
2013-01-07 13:11:00,40.1,14.0,29.96,WNW,295,2.0,-999.0,34,-99.99,,,0.00,weatherlink.com 1.10,2013-01-07 20:11:00,
2013-01-07 13:28:00,40.1,12.0,29.96,WNW,295,0.0,-999.0,32,-99.99,,,0.00,weatherlink.com 1.10,2013-01-07 20:28:00,
2013-01-07 13:40:00,40.5,13.0,29.95,WNW,294,5.0,-999.0,32,-99.99,,,0.00,weatherlink.com 1.10,2013-01-07 20:40:00,
2013-01-07 13:56:00,40.3,14.0,29.95,WNW,293,6.0,-999.0,34,-99.99,,,0.00,weatherlink.com 1.10,2013-01-07 20:56:00,
2013-01-07 14:11:00,39.5,12.0,29.95,West,280,9.0,-999.0,33,-99.99,,,0.00,weatherlink.com 1.10,2013-01-07 21:11:00,
2013-01-07 14:27:00,39.2,13.0,29.98,West,276,11.0,-999.0,34,-99.99,,,0.00,weatherlink.com 1.10,2013-01-07 21:27:00,
2013-01-07 14:42:00,39.1,13.0,29.98,West,272,6.0,-999.0,35,-99.99,,,0.00,weatherlink.com 1.10,2013-01-07 21:42:00,
2013-01-07 14:56:00,39.2,13.0,29.98,West,272,6.0,-999.0,34,-99.99,,,0.00,weatherlink.com 1.10,2013-01-07 21:56:00,
2013-01-07 15:11:00,39.5,14.0,29.97,West,272,8.0,-999.0,36,-99.99,,,0.00,weatherlink.com 1.10,2013-01-07 22:11:00,
2013-01-07 15:27:00,39.5,16.0,29.98,West,272,6.0,-999.0,38,-99.99,,,0.00,weatherlink.com 1.10,2013-01-07 22:27:00,
2013-01-07 15:42:00,38.9,16.0,29.99,West,272,6.0,-999.0,39,-99.99,,,0.00,weatherlink.com 1.10,2013-01-07 22:42:00,
2013-01-07 15:56:00,39.1,15.0,29.99,West,272,6.0,-999.0,38,-99.99,,,0.00,weatherlink.com 1.10,2013-01-07 22:56:00,
2013-01-07 16:28:00,36.2,16.0,30.00,West,272,2.0,-999.0,44,-99.99,,,0.00,weatherlink.com 1.10,2013-01-07 23:28:00,
2013-01-07 16:43:00,35.3,16.0,30.02,West,272,2.0,-999.0,45,-99.99,,,0.00,weatherlink.com 1.10,2013-01-07 23:43:00,
2013-01-07 16:57:00,34.1,16.0,30.02,West,272,0.0,-999.0,47,-99.99,,,0.00,weatherlink.com 1.10,2013-01-07 23:57:00,
2013-01-07 17:12:00,32.5,15.0,30.04,West,272,0.0,-999.0,49,-99.99,,,0.00,weatherlink.com 1.10,2013-01-08 00:12:00,
2013-01-07 17:28:00,31.3,15.0,30.05,West,272,2.0,-999.0,51,-99.99,,,0.00,weatherlink.com 1.10,2013-01-08 00:28:00,
2013-01-07 17:43:00,30.1,14.0,30.05,West,272,0.0,-999.0,52,-99.99,,,0.00,weatherlink.com 1.10,2013-01-08 00:43:00,
2013-01-07 17:57:00,29.1,14.0,30.07,West,272,3.0,-999.0,53,-99.99,,,0.00,weatherlink.com 1.10,2013-01-08 00:57:00,
2013-01-07 18:28:00,29.0,14.0,30.08,West,272,0.0,-999.0,53,-99.99,,,0.00,weatherlink.com 1.10,2013-01-08 01:28:00,
2013-01-07 18:44:00,28.1,14.0,30.07,West,272,0.0,-999.0,55,-99.99,,,0.00,weatherlink.com 1.10,2013-01-08 01:44:00,
2013-01-07 18:58:00,26.0,13.0,30.09,West,272,0.0,-999.0,59,-99.99,,,0.00,weatherlink.com 1.10,2013-01-08 01:58:00,
2013-01-07 19:13:00,23.3,13.0,30.10,West,272,0.0,-999.0,65,-99.99,,,0.00,weatherlink.com 1.10,2013-01-08 02:13:00,
2013-01-07 19:28:00,20.8,12.0,30.11,West,272,2.0,-999.0,68,-99.99,,,0.00,weatherlink.com 1.10,2013-01-08 02:28:00,
2013-01-07 19:43:00,20.0,12.0,30.13,West,272,2.0,-999.0,72,-99.99,,,0.00,weatherlink.com 1.10,2013-01-08 02:43:00,
2013-01-07 19:58:00,19.2,12.0,30.14,West,272,0.0,-999.0,74,-99.99,,,0.00,weatherlink.com 1.10,2013-01-08 02:58:00,
2013-01-07 20:13:00,17.3,10.0,30.15,West,272,1.0,-999.0,74,-99.99,,,0.00,weatherlink.com 1.10,2013-01-08 03:13:00,
2013-01-07 20:28:00,17.3,11.0,30.15,West,272,4.0,-999.0,75,-99.99,,,0.00,weatherlink.com 1.10,2013-01-08 03:28:00,
2013-01-07 20:43:00,17.0,11.0,30.15,West,272,4.0,-999.0,76,-99.99,,,0.00,weatherlink.com 1.10,2013-01-08 03:43:00,
2013-01-07 20:58:00,15.6,9.0,30.15,West,272,2.0,-999.0,76,-99.99,,,0.00,weatherlink.com 1.10,2013-01-08 03:58:00,
2013-01-07 21:13:00,15.4,10.0,30.16,West,272,5.0,-999.0,78,-99.99,,,0.00,weatherlink.com 1.10,2013-01-08 04:13:00,
2013-01-07 21:28:00,15.6,10.0,30.08,West,272,3.0,-999.0,78,-99.99,,,0.00,weatherlink.com 1.10,2013-01-08 04:28:00,
2013-01-07 21:43:00,14.3,8.0,30.08,West,272,0.0,-999.0,77,-99.99,,,0.00,weatherlink.com 1.10,2013-01-08 04:43:00,
2013-01-07 21:58:00,14.0,8.0,30.10,West,272,0.0,-999.0,78,-99.99,,,0.00,weatherlink.com 1.10,2013-01-08 04:58:00,
2013-01-07 22:28:00,13.8,8.0,30.07,West,272,2.0,-999.0,79,-99.99,,,0.00,weatherlink.com 1.10,2013-01-08 05:28:00,
2013-01-07 22:43:00,13.5,8.0,30.07,West,272,0.0,-999.0,78,-99.99,,,0.00,weatherlink.com 1.10,2013-01-08 05:43:00,
2013-01-07 22:58:00,12.9,7.0,30.07,West,272,1.0,-999.0,78,-99.99,,,0.00,weatherlink.com 1.10,2013-01-08 05:58:00,
2013-01-07 23:13:00,12.3,7.0,30.06,West,272,2.0,-999.0,78,-99.99,,,0.00,weatherlink.com 1.10,2013-01-08 06:13:00,
2013-01-07 23:28:00,12.4,7.0,30.07,West,272,5.0,-999.0,78,-99.99,,,0.00,weatherlink.com 1.10,2013-01-08 06:28:00,
2013-01-07 23:43:00,11.6,6.0,30.08,West,272,0.0,-999.0,77,-99.99,,,0.00,weatherlink.com 1.10,2013-01-08 06:43:00,
2013-01-07 23:58:00,11.4,6.0,30.08,West,272,1.0,-999.0,78,-99.99,,,0.00,weatherlink.com 1.10,2013-01-08 06:58:00,